createdAt,value
2022-08-26T00:01:29.075Z,22.22
2022-08-26T00:03:56.819Z,22.20
2022-08-26T00:06:24.655Z,22.19
2022-08-26T00:08:51.637Z,22.21
2022-08-26T00:11:26.888Z,22.20
2022-08-26T00:13:55.055Z,22.22
2022-08-26T00:16:23.497Z,22.22
2022-08-26T00:18:50.485Z,22.23
2022-08-26T00:21:16.993Z,22.20
2022-08-26T00:23:43.493Z,22.19
2022-08-26T00:26:09.911Z,22.22
2022-08-26T00:28:38.065Z,22.21
2022-08-26T00:31:07.716Z,22.21
2022-08-26T00:33:38.179Z,22.19
2022-08-26T00:36:05.678Z,22.14
2022-08-26T00:38:32.350Z,22.10
2022-08-26T00:40:58.842Z,22.09
2022-08-26T00:43:25.791Z,22.03
2022-08-26T00:46:00.965Z,21.97
2022-08-26T00:48:32.336Z,21.93
2022-08-26T00:51:04.481Z,21.92
2022-08-26T00:53:37.005Z,21.91
2022-08-26T00:56:09.688Z,21.93
2022-08-26T00:58:42.993Z,21.97
2022-08-26T01:01:10.686Z,21.96
2022-08-26T01:03:37.948Z,22.00
2022-08-26T01:06:06.192Z,21.99
2022-08-26T01:08:39.335Z,22.01
2022-08-26T01:11:06.927Z,21.98
2022-08-26T01:13:36.948Z,21.97
2022-08-26T01:16:06.567Z,21.97
2022-08-26T01:18:33.753Z,21.94
2022-08-26T01:21:21.434Z,21.91
2022-08-26T01:23:51.515Z,21.89
2022-08-26T01:26:32.415Z,21.86
2022-08-26T01:29:02.961Z,21.84
2022-08-26T01:31:35.242Z,21.83
2022-08-26T01:34:19.933Z,21.79
2022-08-26T01:36:51.196Z,21.77
2022-08-26T01:39:18.755Z,21.77
2022-08-26T01:41:46.327Z,21.77
2022-08-26T01:44:22.034Z,21.78
2022-08-26T01:46:50.747Z,21.76
2022-08-26T01:49:18.687Z,21.78
2022-08-26T01:51:47.981Z,21.79
2022-08-26T01:54:15.936Z,21.81
2022-08-26T01:56:42.948Z,21.81
2022-08-26T01:59:14.811Z,21.79
2022-08-26T02:01:41.533Z,21.77
2022-08-26T02:04:29.332Z,21.75
2022-08-26T02:06:57.149Z,21.71
2022-08-26T02:09:26.441Z,21.63
2022-08-26T02:11:53.479Z,21.63
2022-08-26T02:14:44.507Z,21.62
2022-08-26T02:17:11.324Z,21.61
2022-08-26T02:19:41.897Z,21.58
2022-08-26T02:22:13.925Z,21.58
2022-08-26T02:24:54.911Z,21.57
2022-08-26T02:27:32.113Z,21.61
2022-08-26T02:30:14.809Z,21.63
2022-08-26T02:32:44.465Z,21.62
2022-08-26T02:35:14.179Z,21.59
2022-08-26T02:37:49.440Z,21.60
2022-08-26T02:40:19.301Z,21.59
2022-08-26T02:42:48.463Z,21.56
2022-08-26T02:45:16.742Z,21.54
2022-08-26T02:47:51.402Z,21.51
2022-08-26T02:50:19.288Z,21.49
2022-08-26T02:52:45.744Z,21.45
2022-08-26T02:55:12.406Z,21.43
2022-08-26T02:57:39.187Z,21.41
2022-08-26T03:00:09.101Z,21.38
2022-08-26T03:02:35.720Z,21.36
2022-08-26T03:05:02.640Z,21.32
2022-08-26T03:07:29.957Z,21.29
2022-08-26T03:09:57.157Z,21.29
2022-08-26T03:12:24.016Z,21.31
2022-08-26T03:14:52.089Z,21.29
2022-08-26T03:17:18.888Z,21.30
2022-08-26T03:19:45.369Z,21.30
2022-08-26T03:22:12.038Z,21.34
2022-08-26T03:24:41.212Z,21.35
2022-08-26T03:27:12.648Z,21.35
2022-08-26T03:29:58.182Z,21.36
2022-08-26T03:32:24.657Z,21.34
2022-08-26T03:34:54.204Z,21.31
2022-08-26T03:37:21.556Z,21.32
2022-08-26T03:39:48.797Z,21.30
2022-08-26T03:42:16.048Z,21.30
2022-08-26T03:44:42.578Z,21.29
2022-08-26T03:47:09.207Z,21.29
2022-08-26T03:49:36.068Z,21.28
2022-08-26T03:52:03.798Z,21.27
2022-08-26T03:54:30.632Z,21.29
2022-08-26T03:56:57.051Z,21.31
2022-08-26T03:59:23.496Z,21.34
2022-08-26T04:01:51.293Z,21.38
2022-08-26T04:04:18.313Z,21.39
2022-08-26T04:06:50.160Z,21.40
2022-08-26T04:09:21.019Z,21.41
2022-08-26T04:11:50.425Z,21.41
2022-08-26T04:14:20.460Z,21.39
2022-08-26T04:16:48.059Z,21.36
2022-08-26T04:19:15.764Z,21.32
2022-08-26T04:21:43.112Z,21.30
2022-08-26T04:24:12.333Z,21.29
2022-08-26T04:26:42.765Z,21.25
2022-08-26T04:29:13.072Z,21.23
2022-08-26T04:31:39.645Z,21.22
2022-08-26T04:34:07.236Z,21.21
2022-08-26T04:36:34.164Z,21.19
2022-08-26T04:39:04.002Z,21.18
2022-08-26T04:41:31.783Z,21.20
2022-08-26T04:43:58.352Z,21.23
2022-08-26T04:46:25.598Z,21.22
2022-08-26T04:48:53.577Z,21.25
2022-08-26T04:51:21.284Z,21.26
2022-08-26T04:53:48.469Z,21.28
2022-08-26T04:56:16.713Z,21.28
2022-08-26T04:58:43.436Z,21.26
2022-08-26T05:01:10.074Z,21.23
2022-08-26T05:03:36.932Z,21.20
2022-08-26T05:06:05.361Z,21.17
2022-08-26T05:08:31.814Z,21.17
2022-08-26T05:10:58.243Z,21.14
2022-08-26T05:13:27.563Z,21.13
2022-08-26T05:15:54.510Z,21.11
2022-08-26T05:18:24.220Z,21.11
2022-08-26T05:20:53.904Z,21.06
2022-08-26T05:23:22.823Z,21.09
2022-08-26T05:25:54.663Z,21.10
2022-08-26T05:28:23.693Z,21.12
2022-08-26T05:30:52.419Z,21.15
2022-08-26T05:33:19.796Z,21.15
2022-08-26T05:35:47.151Z,21.17
2022-08-26T05:38:16.748Z,21.20
2022-08-26T05:40:46.402Z,21.22
2022-08-26T05:43:13.686Z,21.24
2022-08-26T05:45:45.853Z,21.24
2022-08-26T05:48:13.669Z,21.20
2022-08-26T05:50:49.347Z,21.20
2022-08-26T05:53:18.778Z,21.18
2022-08-26T05:55:49.812Z,21.18
2022-08-26T05:58:20.138Z,21.17
2022-08-26T06:00:55.972Z,21.16
2022-08-26T06:03:22.585Z,21.13
2022-08-26T06:05:49.118Z,21.14
2022-08-26T06:08:15.720Z,21.15
2022-08-26T06:10:52.501Z,21.18
2022-08-26T06:13:26.893Z,21.21
2022-08-26T06:15:59.333Z,21.21
2022-08-26T06:18:34.850Z,21.25
2022-08-26T06:21:13.404Z,21.29
2022-08-26T06:23:58.668Z,21.33
2022-08-26T06:26:26.106Z,21.35
2022-08-26T06:28:52.800Z,21.35
2022-08-26T06:31:19.440Z,21.31
2022-08-26T06:33:45.997Z,21.27
2022-08-26T06:36:25.391Z,21.25
2022-08-26T06:38:53.710Z,21.23
2022-08-26T06:41:21.461Z,21.25
2022-08-26T06:43:48.697Z,21.30
2022-08-26T06:46:18.041Z,21.36
2022-08-26T06:48:45.462Z,21.42
2022-08-26T06:51:18.707Z,21.49
2022-08-26T06:53:47.119Z,21.58
2022-08-26T06:56:17.792Z,21.64
2022-08-26T06:58:45.913Z,21.70
2022-08-26T07:01:21.864Z,21.68
2022-08-26T07:03:50.403Z,21.68
2022-08-26T07:06:19.398Z,21.68
2022-08-26T07:08:50.909Z,21.66
2022-08-26T07:11:19.034Z,21.62
2022-08-26T07:13:46.612Z,21.59
2022-08-26T07:16:18.003Z,21.55
2022-08-26T07:18:45.213Z,21.51
2022-08-26T07:21:15.371Z,21.48
2022-08-26T07:23:41.935Z,21.48
2022-08-26T07:26:16.163Z,21.48
2022-08-26T07:28:44.197Z,21.49
2022-08-26T07:31:12.896Z,21.46
2022-08-26T07:33:41.097Z,21.45
2022-08-26T07:36:09.604Z,21.50
2022-08-26T07:38:37.369Z,21.55
2022-08-26T07:41:03.913Z,21.61
2022-08-26T07:43:30.644Z,21.63
2022-08-26T07:45:57.710Z,21.61
2022-08-26T07:48:25.180Z,21.62
2022-08-26T07:50:53.641Z,21.63
2022-08-26T07:53:21.810Z,21.66
2022-08-26T07:55:51.159Z,21.68
2022-08-26T07:58:18.647Z,21.71
2022-08-26T08:00:45.891Z,21.73
2022-08-26T08:03:13.189Z,21.72
2022-08-26T08:05:41.372Z,21.69
2022-08-26T08:08:27.104Z,21.68
2022-08-26T08:13:22.973Z,21.65
2022-08-26T08:15:50.333Z,21.63
2022-08-26T08:18:16.901Z,21.62
2022-08-26T08:20:47.617Z,21.64
2022-08-26T08:23:26.009Z,21.67
2022-08-26T08:26:10.230Z,21.72
2022-08-26T08:28:38.390Z,21.74
2022-08-26T08:31:05.691Z,21.76
2022-08-26T08:33:33.708Z,21.75
2022-08-26T08:36:00.996Z,21.74
2022-08-26T08:38:29.619Z,21.75
2022-08-26T08:40:56.039Z,21.70
2022-08-26T08:43:39.931Z,21.63
2022-08-26T08:46:12.276Z,21.57
2022-08-26T08:48:48.345Z,21.58
2022-08-26T08:51:29.349Z,21.58
2022-08-26T08:53:56.747Z,21.61
2022-08-26T08:56:33.360Z,21.63
2022-08-26T08:59:26.023Z,21.60
2022-08-26T09:01:59.991Z,21.62
2022-08-26T09:04:47.967Z,21.71
2022-08-26T09:07:22.095Z,21.76
2022-08-26T09:10:00.145Z,21.83
2022-08-26T09:12:31.963Z,21.87
2022-08-26T09:15:11.301Z,21.87
2022-08-26T09:17:59.834Z,21.87
2022-08-26T09:21:03.561Z,21.88
2022-08-26T09:23:32.829Z,21.90
2022-08-26T09:26:25.948Z,21.85
2022-08-26T09:29:03.647Z,21.83
2022-08-26T09:31:36.413Z,21.83
2022-08-26T09:34:19.584Z,21.85
2022-08-26T09:36:49.379Z,21.86
2022-08-26T09:39:28.062Z,21.84
2022-08-26T09:42:08.394Z,21.88
2022-08-26T09:44:54.007Z,21.93
2022-08-26T09:47:41.487Z,21.97
2022-08-26T09:50:23.560Z,22.07
2022-08-26T09:53:13.144Z,22.15
2022-08-26T09:55:44.911Z,22.17
2022-08-26T09:58:17.388Z,22.22
2022-08-26T10:01:01.509Z,22.21
2022-08-26T10:03:32.825Z,22.17
2022-08-26T10:06:02.808Z,22.16
2022-08-26T10:08:33.025Z,22.15
2022-08-26T10:11:02.431Z,22.13
2022-08-26T10:13:35.459Z,22.07
2022-08-26T10:16:11.087Z,22.06
2022-08-26T10:18:42.998Z,22.06
2022-08-26T10:21:14.403Z,22.06
2022-08-26T10:23:50.128Z,22.05
2022-08-26T10:26:27.717Z,22.10
2022-08-26T10:29:12.445Z,22.21
2022-08-26T10:32:03.470Z,22.31
2022-08-26T10:34:32.594Z,22.45
2022-08-26T10:37:14.430Z,22.48
2022-08-26T10:39:57.105Z,22.56
2022-08-26T10:42:42.869Z,22.60
2022-08-26T10:45:15.501Z,22.59
2022-08-26T10:48:01.345Z,22.58
2022-08-26T10:50:35.693Z,22.62
2022-08-26T10:53:12.919Z,22.63
2022-08-26T10:56:01.119Z,22.76
2022-08-26T10:58:56.815Z,22.88
2022-08-26T11:01:53.887Z,22.98
2022-08-26T11:04:23.245Z,23.07
2022-08-26T11:07:32.560Z,23.22
2022-08-26T11:10:06.847Z,23.27
2022-08-26T11:12:36.101Z,23.38
2022-08-26T11:15:08.703Z,23.46
2022-08-26T11:17:43.992Z,23.60
2022-08-26T11:20:23.930Z,23.70
2022-08-26T11:22:51.940Z,23.92
2022-08-26T11:25:20.284Z,24.06
2022-08-26T11:27:52.781Z,24.12
2022-08-26T11:30:20.322Z,24.10
2022-08-26T11:32:48.961Z,24.13
2022-08-26T11:35:18.516Z,24.15
2022-08-26T11:37:48.288Z,24.17
2022-08-26T11:40:18.408Z,24.13
2022-08-26T11:42:54.333Z,24.09
2022-08-26T11:45:41.752Z,24.08
2022-08-26T11:48:27.060Z,24.16
2022-08-26T11:51:09.700Z,24.24
2022-08-26T11:53:39.662Z,24.26
2022-08-26T11:56:10.519Z,24.25
2022-08-26T11:58:45.677Z,24.20
2022-08-26T12:02:04.562Z,24.15
2022-08-26T12:04:39.713Z,24.21
2022-08-26T12:07:08.735Z,24.21
2022-08-26T12:09:38.341Z,24.11
2022-08-26T12:12:16.055Z,24.08
2022-08-26T12:14:43.563Z,24.01
2022-08-26T12:17:16.651Z,23.96
2022-08-26T12:19:43.573Z,23.91
2022-08-26T12:22:20.874Z,23.89
2022-08-26T12:24:53.775Z,23.90
2022-08-26T12:27:36.738Z,23.92
2022-08-26T12:30:37.532Z,24.12
2022-08-26T12:33:22.529Z,24.35
2022-08-26T12:35:54.783Z,24.41
2022-08-26T12:38:25.007Z,24.44
2022-08-26T12:40:51.755Z,24.28
2022-08-26T12:43:47.305Z,24.11
2022-08-26T12:46:17.892Z,23.97
2022-08-26T12:48:49.460Z,23.86
2022-08-26T12:51:23.519Z,23.73
2022-08-26T12:53:50.371Z,23.69
2022-08-26T12:56:21.632Z,23.66
2022-08-26T12:59:02.870Z,23.61
2022-08-26T13:01:42.291Z,23.52
2022-08-26T13:04:31.896Z,23.43
2022-08-26T13:07:26.628Z,23.44
2022-08-26T13:09:58.284Z,23.61
2022-08-26T13:12:37.473Z,24.00
2022-08-26T13:15:05.266Z,24.30
2022-08-26T13:17:31.692Z,24.39
2022-08-26T13:20:03.433Z,24.39
2022-08-26T13:22:30.784Z,24.28
2022-08-26T13:24:57.822Z,24.15
2022-08-26T13:27:26.356Z,24.24
2022-08-26T13:29:53.754Z,24.30
2022-08-26T13:32:30.294Z,24.37
2022-08-26T13:34:57.417Z,24.37
2022-08-26T13:37:35.312Z,24.40
2022-08-26T13:40:04.734Z,24.44
2022-08-26T13:42:31.437Z,24.44
2022-08-26T13:44:58.838Z,24.41
2022-08-26T13:47:26.363Z,24.47
2022-08-26T13:49:54.600Z,24.50
2022-08-26T13:52:30.195Z,24.59
2022-08-26T13:54:58.679Z,24.67
2022-08-26T13:57:27.992Z,24.59
2022-08-26T13:59:56.416Z,24.47
2022-08-26T14:02:23.132Z,24.31
2022-08-26T14:04:49.792Z,24.13
2022-08-26T14:10:07.200Z,23.93
2022-08-26T14:12:33.629Z,23.78
2022-08-26T14:15:00.474Z,23.63
2022-08-26T14:17:27.048Z,23.50
2022-08-26T14:19:57.314Z,23.40
2022-08-26T14:22:24.011Z,23.32
2022-08-26T14:24:50.735Z,23.25
2022-08-26T14:27:17.362Z,23.21
2022-08-26T14:29:43.853Z,23.13
2022-08-26T14:32:21.414Z,23.09
2022-08-26T14:34:48.965Z,23.04
2022-08-26T14:37:15.535Z,23.10
2022-08-26T14:39:42.148Z,23.21
2022-08-26T14:42:10.155Z,23.25
2022-08-26T14:44:37.262Z,23.21
2022-08-26T14:47:06.596Z,23.18
2022-08-26T14:49:33.078Z,23.10
2022-08-26T14:51:59.885Z,23.01
2022-08-26T14:54:26.453Z,22.96
2022-08-26T14:56:57.675Z,23.05
2022-08-26T14:59:31.130Z,23.17
2022-08-26T15:01:57.935Z,23.21
2022-08-26T15:04:25.441Z,23.19
2022-08-26T15:06:54.262Z,23.14
2022-08-26T15:09:21.795Z,23.03
2022-08-26T15:11:48.437Z,23.07
2022-08-26T15:14:19.455Z,23.17
2022-08-26T15:16:51.969Z,23.32
2022-08-26T15:19:19.556Z,23.42
2022-08-26T15:21:47.050Z,23.49
2022-08-26T15:24:15.694Z,23.42
2022-08-26T15:26:43.258Z,23.37
2022-08-26T15:29:10.162Z,23.43
2022-08-26T15:31:36.891Z,23.46
2022-08-26T15:34:06.310Z,23.50
2022-08-26T15:36:33.614Z,23.49
2022-08-26T15:39:01.404Z,23.51
2022-08-26T15:41:29.555Z,23.33
2022-08-26T15:43:56.784Z,23.27
2022-08-26T15:46:23.830Z,23.24
2022-08-26T15:48:50.409Z,23.27
2022-08-26T15:51:26.540Z,23.25
2022-08-26T15:53:56.189Z,23.20
2022-08-26T15:56:26.846Z,23.15
2022-08-26T15:58:56.205Z,23.09
2022-08-26T16:01:24.201Z,23.10
2022-08-26T16:03:55.075Z,23.12
2022-08-26T16:06:25.852Z,22.94
2022-08-26T16:08:52.430Z,22.85
2022-08-26T16:11:19.839Z,22.85
2022-08-26T16:13:46.984Z,22.86
2022-08-26T16:16:13.634Z,22.82
2022-08-26T16:18:40.272Z,22.77
2022-08-26T16:21:13.208Z,22.73
2022-08-26T16:23:40.965Z,22.66
2022-08-26T16:26:16.740Z,22.65
2022-08-26T16:28:43.813Z,22.68
2022-08-26T16:31:10.662Z,22.69
2022-08-26T16:33:40.080Z,22.70
2022-08-26T16:36:08.392Z,22.64
2022-08-26T16:38:35.579Z,22.62
2022-08-26T16:41:02.455Z,22.56
2022-08-26T16:43:29.118Z,22.46
2022-08-26T16:45:55.980Z,22.33
2022-08-26T16:48:23.703Z,22.28
2022-08-26T16:50:51.298Z,22.19
2022-08-26T16:53:19.015Z,22.11
2022-08-26T16:55:47.447Z,22.08
2022-08-26T16:58:14.685Z,22.03
2022-08-26T17:00:41.148Z,21.97
2022-08-26T17:03:07.738Z,21.91
2022-08-26T17:05:34.316Z,21.79
2022-08-26T17:08:00.965Z,21.72
2022-08-26T17:10:28.889Z,21.64
2022-08-26T17:12:56.062Z,21.69
2022-08-26T17:15:23.784Z,21.66
2022-08-26T17:17:53.928Z,21.66
2022-08-26T17:20:22.462Z,21.55
2022-08-26T17:22:50.737Z,21.47
2022-08-26T17:25:21.238Z,21.46
2022-08-26T17:27:48.374Z,21.44
2022-08-26T17:30:16.524Z,21.39
2022-08-26T17:32:43.052Z,21.35
2022-08-26T17:35:13.032Z,21.33
2022-08-26T17:37:40.464Z,21.27
2022-08-26T17:40:10.992Z,21.25
2022-08-26T17:42:43.122Z,21.28
2022-08-26T17:45:11.042Z,21.33
2022-08-26T17:47:38.741Z,21.26
2022-08-26T17:50:07.020Z,21.19
2022-08-26T17:52:33.611Z,21.14
2022-08-26T17:55:00.098Z,21.10
2022-08-26T17:57:27.070Z,21.13
2022-08-26T17:59:54.303Z,21.11
2022-08-26T18:02:21.405Z,21.01
2022-08-26T18:04:48.732Z,20.92
2022-08-26T18:07:16.664Z,20.89
2022-08-26T18:09:43.847Z,20.94
2022-08-26T18:12:10.921Z,20.87
2022-08-26T18:14:37.843Z,20.79
2022-08-26T18:17:04.941Z,20.73
2022-08-26T18:19:31.551Z,20.65
2022-08-26T18:21:58.320Z,20.58
2022-08-26T18:24:25.000Z,20.51
2022-08-26T18:26:51.419Z,20.45
2022-08-26T18:29:19.631Z,20.49
2022-08-26T18:31:46.666Z,20.55
2022-08-26T18:34:15.334Z,20.51
2022-08-26T18:36:42.842Z,20.44
2022-08-26T18:39:10.595Z,20.41
2022-08-26T18:41:43.615Z,20.42
2022-08-26T18:44:13.574Z,20.48
2022-08-26T18:46:40.515Z,20.44
2022-08-26T18:49:06.984Z,20.40
2022-08-26T18:51:34.256Z,20.35
2022-08-26T18:54:02.777Z,20.29
2022-08-26T18:56:30.228Z,20.25
2022-08-26T18:58:58.215Z,20.26
2022-08-26T19:01:27.581Z,20.20
2022-08-26T19:03:55.640Z,20.21
2022-08-26T19:06:24.385Z,20.24
2022-08-26T19:08:50.839Z,20.19
2022-08-26T19:11:32.257Z,20.15
2022-08-26T19:14:00.672Z,20.20
2022-08-26T19:16:27.601Z,20.25
2022-08-26T19:18:55.464Z,20.25
2022-08-26T19:21:22.946Z,20.26
2022-08-26T19:23:50.269Z,20.26
2022-08-26T19:26:16.913Z,20.23
2022-08-26T19:28:43.539Z,20.22
2022-08-26T19:31:11.599Z,20.21
2022-08-26T19:33:43.466Z,20.20
2022-08-26T19:36:15.328Z,20.18
2022-08-26T19:38:42.697Z,20.13
2022-08-26T19:41:18.200Z,20.07
2022-08-26T19:43:46.193Z,20.02
2022-08-26T19:46:20.504Z,19.96
2022-08-26T19:48:47.709Z,19.90
2022-08-26T19:51:24.333Z,19.85
2022-08-26T19:53:52.153Z,19.81
2022-08-26T19:56:18.915Z,19.77
2022-08-26T19:58:46.071Z,19.72
2022-08-26T20:01:14.315Z,19.70
2022-08-26T20:03:41.276Z,19.64
2022-08-26T20:06:09.798Z,19.58
2022-08-26T20:08:38.730Z,19.54
2022-08-26T20:11:09.024Z,19.51
2022-08-26T20:13:36.493Z,19.51
2022-08-26T20:16:03.169Z,19.48
2022-08-26T20:18:48.175Z,19.47
2022-08-26T20:21:26.447Z,19.44
2022-08-26T20:24:02.643Z,19.43
2022-08-26T20:26:31.651Z,19.38
2022-08-26T20:28:59.079Z,19.33
2022-08-26T20:31:26.221Z,19.28
2022-08-26T20:33:53.522Z,19.25
2022-08-26T20:36:22.256Z,19.26
2022-08-26T20:38:49.805Z,19.26
2022-08-26T20:41:17.132Z,19.27
2022-08-26T20:43:43.943Z,19.29
2022-08-26T20:46:17.209Z,19.30
2022-08-26T20:48:46.568Z,19.31
2022-08-26T20:51:13.191Z,19.33
2022-08-26T20:53:39.878Z,19.38
2022-08-26T20:56:08.916Z,19.39
2022-08-26T20:58:36.488Z,19.41
2022-08-26T21:01:07.503Z,19.39
2022-08-26T21:03:35.579Z,19.38
2022-08-26T21:06:03.699Z,19.34
2022-08-26T21:08:33.113Z,19.28
2022-08-26T21:11:00.699Z,19.22
2022-08-26T21:13:29.027Z,19.19
2022-08-26T21:16:02.759Z,19.13
2022-08-26T21:18:29.537Z,19.06
2022-08-26T21:20:55.921Z,18.96
2022-08-26T21:23:26.374Z,18.97
2022-08-26T21:25:55.125Z,18.89
2022-08-26T21:28:21.511Z,18.91
2022-08-26T21:30:48.072Z,18.93
2022-08-26T21:33:14.484Z,18.98
2022-08-26T21:35:41.073Z,19.00
2022-08-26T21:38:07.632Z,19.01
2022-08-26T21:40:34.100Z,18.93
2022-08-26T21:43:00.527Z,18.93
2022-08-26T21:45:27.137Z,18.95
2022-08-26T21:47:53.738Z,18.93
2022-08-26T21:50:20.347Z,18.89
2022-08-26T21:52:47.285Z,18.85
2022-08-26T21:55:13.714Z,18.77
2022-08-26T21:57:40.635Z,18.72
2022-08-26T22:00:09.337Z,18.75
2022-08-26T22:02:36.962Z,18.79
2022-08-26T22:05:04.416Z,18.80
2022-08-26T22:07:31.012Z,18.78
2022-08-26T22:09:57.840Z,18.79
2022-08-26T22:12:24.453Z,18.72
2022-08-26T22:14:51.067Z,18.78
2022-08-26T22:17:17.694Z,18.78
2022-08-26T22:19:46.215Z,18.78
2022-08-26T22:22:14.622Z,18.80
2022-08-26T22:24:43.227Z,18.78
2022-08-26T22:27:11.865Z,18.69
2022-08-26T22:29:38.723Z,18.72
2022-08-26T22:32:05.881Z,18.76
2022-08-26T22:34:32.304Z,18.78
2022-08-26T22:36:59.519Z,18.78
2022-08-26T22:39:26.499Z,18.75
2022-08-26T22:41:54.203Z,18.68
2022-08-26T22:44:22.337Z,18.66
2022-08-26T22:46:50.579Z,18.59
2022-08-26T22:49:17.727Z,18.63
2022-08-26T22:51:45.443Z,18.63
2022-08-26T22:54:13.051Z,18.65
2022-08-26T22:56:39.985Z,18.63
2022-08-26T22:59:07.947Z,18.63
2022-08-26T23:01:40.735Z,18.68
2022-08-26T23:04:08.351Z,18.70
2022-08-26T23:06:39.675Z,18.71
2022-08-26T23:09:07.796Z,18.73
2022-08-26T23:11:34.645Z,18.69
2022-08-26T23:14:05.048Z,18.72
2022-08-26T23:16:39.560Z,18.69
2022-08-26T23:19:06.869Z,18.68
2022-08-26T23:21:33.467Z,18.70
2022-08-26T23:24:01.048Z,18.75
2022-08-26T23:26:27.789Z,18.75
2022-08-26T23:28:55.403Z,18.74
2022-08-26T23:31:21.830Z,18.73
2022-08-26T23:34:06.553Z,18.69
2022-08-26T23:36:34.968Z,18.70
2022-08-26T23:39:01.924Z,18.72
2022-08-26T23:41:28.511Z,18.72
2022-08-26T23:43:54.968Z,18.72
2022-08-26T23:46:21.583Z,18.75
2022-08-26T23:48:48.020Z,18.78
2022-08-26T23:51:33.084Z,18.77
2022-08-26T23:53:59.894Z,18.78
2022-08-26T23:56:26.884Z,18.73
2022-08-26T23:58:53.841Z,18.73
